sensor_id;sensor_type;location;lat;lon;timestamp;P1;durP1;ratioP1;P2;durP2;ratioP2
22924;SDS011;11628;51.072;3.712;2023-02-15T00:01:18;90.70;;;63.40;;
22924;SDS011;11628;51.072;3.712;2023-02-15T00:03:44;90.22;;;61.55;;
22924;SDS011;11628;51.072;3.712;2023-02-15T00:06:10;87.10;;;61.72;;
22924;SDS011;11628;51.072;3.712;2023-02-15T00:08:36;92.40;;;60.28;;
22924;SDS011;11628;51.072;3.712;2023-02-15T00:11:08;88.72;;;58.45;;
22924;SDS011;11628;51.072;3.712;2023-02-15T00:13:35;86.03;;;59.08;;
22924;SDS011;11628;51.072;3.712;2023-02-15T00:16:03;90.75;;;60.45;;
22924;SDS011;11628;51.072;3.712;2023-02-15T00:18:34;86.10;;;59.05;;
22924;SDS011;11628;51.072;3.712;2023-02-15T00:21:07;82.13;;;57.67;;
22924;SDS011;11628;51.072;3.712;2023-02-15T00:23:34;85.05;;;58.63;;
22924;SDS011;11628;51.072;3.712;2023-02-15T00:26:08;81.70;;;59.53;;
22924;SDS011;11628;51.072;3.712;2023-02-15T00:28:35;90.03;;;57.78;;
22924;SDS011;11628;51.072;3.712;2023-02-15T00:31:11;88.13;;;59.83;;
22924;SDS011;11628;51.072;3.712;2023-02-15T00:33:37;87.70;;;59.90;;
22924;SDS011;11628;51.072;3.712;2023-02-15T00:36:05;89.68;;;60.25;;
22924;SDS011;11628;51.072;3.712;2023-02-15T00:38:32;85.05;;;59.30;;
22924;SDS011;11628;51.072;3.712;2023-02-15T00:40:59;86.25;;;59.78;;
22924;SDS011;11628;51.072;3.712;2023-02-15T00:43:27;89.90;;;60.45;;
22924;SDS011;11628;51.072;3.712;2023-02-15T00:45:54;83.78;;;58.83;;
22924;SDS011;11628;51.072;3.712;2023-02-15T00:48:20;81.72;;;58.35;;
22924;SDS011;11628;51.072;3.712;2023-02-15T00:50:48;81.30;;;57.22;;
22924;SDS011;11628;51.072;3.712;2023-02-15T00:53:16;82.13;;;58.70;;
22924;SDS011;11628;51.072;3.712;2023-02-15T00:55:41;81.13;;;57.33;;
22924;SDS011;11628;51.072;3.712;2023-02-15T00:58:09;81.70;;;57.60;;
22924;SDS011;11628;51.072;3.712;2023-02-15T01:00:36;86.05;;;59.80;;
22924;SDS011;11628;51.072;3.712;2023-02-15T01:03:02;84.45;;;60.42;;
22924;SDS011;11628;51.072;3.712;2023-02-15T01:05:28;80.13;;;57.70;;
22924;SDS011;11628;51.072;3.712;2023-02-15T01:07:55;84.55;;;60.08;;
22924;SDS011;11628;51.072;3.712;2023-02-15T01:10:21;85.55;;;59.05;;
22924;SDS011;11628;51.072;3.712;2023-02-15T01:12:47;82.20;;;59.42;;
22924;SDS011;11628;51.072;3.712;2023-02-15T01:15:13;81.85;;;59.70;;
22924;SDS011;11628;51.072;3.712;2023-02-15T01:17:38;82.53;;;58.47;;
22924;SDS011;11628;51.072;3.712;2023-02-15T01:20:05;89.53;;;60.80;;
22924;SDS011;11628;51.072;3.712;2023-02-15T01:22:31;87.28;;;61.78;;
22924;SDS011;11628;51.072;3.712;2023-02-15T01:24:58;91.22;;;62.70;;
22924;SDS011;11628;51.072;3.712;2023-02-15T01:27:24;84.40;;;60.25;;
22924;SDS011;11628;51.072;3.712;2023-02-15T01:29:50;88.90;;;62.33;;
22924;SDS011;11628;51.072;3.712;2023-02-15T01:32:15;87.55;;;61.38;;
22924;SDS011;11628;51.072;3.712;2023-02-15T01:34:42;85.70;;;62.28;;
22924;SDS011;11628;51.072;3.712;2023-02-15T01:37:07;92.40;;;64.97;;
22924;SDS011;11628;51.072;3.712;2023-02-15T01:39:34;89.85;;;63.35;;
22924;SDS011;11628;51.072;3.712;2023-02-15T01:42:00;94.22;;;68.57;;
22924;SDS011;11628;51.072;3.712;2023-02-15T01:47:14;85.82;;;62.10;;
22924;SDS011;11628;51.072;3.712;2023-02-15T01:49:44;84.50;;;61.53;;
22924;SDS011;11628;51.072;3.712;2023-02-15T01:52:12;88.95;;;62.85;;
22924;SDS011;11628;51.072;3.712;2023-02-15T01:54:41;89.60;;;63.67;;
22924;SDS011;11628;51.072;3.712;2023-02-15T01:57:13;87.78;;;61.72;;
22924;SDS011;11628;51.072;3.712;2023-02-15T01:59:43;88.35;;;62.20;;
22924;SDS011;11628;51.072;3.712;2023-02-15T02:02:13;87.63;;;62.92;;
22924;SDS011;11628;51.072;3.712;2023-02-15T02:04:44;89.45;;;61.97;;
22924;SDS011;11628;51.072;3.712;2023-02-15T02:07:14;92.63;;;66.30;;
22924;SDS011;11628;51.072;3.712;2023-02-15T02:09:44;90.15;;;64.78;;
22924;SDS011;11628;51.072;3.712;2023-02-15T02:12:10;87.78;;;63.58;;
22924;SDS011;11628;51.072;3.712;2023-02-15T02:14:36;87.97;;;64.43;;
22924;SDS011;11628;51.072;3.712;2023-02-15T02:31:31;104.15;;;73.97;;
22924;SDS011;11628;51.072;3.712;2023-02-15T02:36:49;104.45;;;72.72;;
22924;SDS011;11628;51.072;3.712;2023-02-15T02:39:30;103.75;;;74.78;;
22924;SDS011;11628;51.072;3.712;2023-02-15T02:44:49;106.95;;;74.07;;
22924;SDS011;11628;51.072;3.712;2023-02-15T02:47:34;100.85;;;71.45;;
22924;SDS011;11628;51.072;3.712;2023-02-15T02:50:09;101.13;;;72.15;;
22924;SDS011;11628;51.072;3.712;2023-02-15T02:52:40;99.50;;;70.72;;
22924;SDS011;11628;51.072;3.712;2023-02-15T02:57:42;98.07;;;70.60;;
22924;SDS011;11628;51.072;3.712;2023-02-15T03:00:17;102.82;;;71.03;;
22924;SDS011;11628;51.072;3.712;2023-02-15T03:02:45;99.85;;;72.40;;
22924;SDS011;11628;51.072;3.712;2023-02-15T03:05:15;95.25;;;68.85;;
22924;SDS011;11628;51.072;3.712;2023-02-15T03:07:44;98.20;;;68.18;;
22924;SDS011;11628;51.072;3.712;2023-02-15T03:10:15;102.32;;;71.75;;
22924;SDS011;11628;51.072;3.712;2023-02-15T03:12:43;103.25;;;71.20;;
22924;SDS011;11628;51.072;3.712;2023-02-15T03:15:10;103.00;;;70.72;;
22924;SDS011;11628;51.072;3.712;2023-02-15T03:18:22;106.18;;;72.15;;
22924;SDS011;11628;51.072;3.712;2023-02-15T03:20:53;104.65;;;72.38;;
22924;SDS011;11628;51.072;3.712;2023-02-15T03:23:23;104.63;;;74.25;;
22924;SDS011;11628;51.072;3.712;2023-02-15T03:25:55;104.97;;;72.95;;
22924;SDS011;11628;51.072;3.712;2023-02-15T03:28:27;102.55;;;70.93;;
22924;SDS011;11628;51.072;3.712;2023-02-15T03:30:59;96.45;;;70.72;;
22924;SDS011;11628;51.072;3.712;2023-02-15T03:33:26;98.32;;;69.80;;
22924;SDS011;11628;51.072;3.712;2023-02-15T03:35:56;106.22;;;72.35;;
22924;SDS011;11628;51.072;3.712;2023-02-15T03:38:55;95.15;;;67.25;;
22924;SDS011;11628;51.072;3.712;2023-02-15T03:41:29;106.53;;;72.70;;
22924;SDS011;11628;51.072;3.712;2023-02-15T03:44:09;100.15;;;71.65;;
22924;SDS011;11628;51.072;3.712;2023-02-15T03:49:21;97.93;;;69.45;;
22924;SDS011;11628;51.072;3.712;2023-02-15T03:51:52;99.43;;;72.38;;
22924;SDS011;11628;51.072;3.712;2023-02-15T03:54:24;105.13;;;71.68;;
22924;SDS011;11628;51.072;3.712;2023-02-15T03:57:09;99.35;;;68.97;;
22924;SDS011;11628;51.072;3.712;2023-02-15T04:05:41;100.40;;;69.47;;
22924;SDS011;11628;51.072;3.712;2023-02-15T04:08:08;97.65;;;67.85;;
22924;SDS011;11628;51.072;3.712;2023-02-15T04:10:35;104.82;;;70.25;;
22924;SDS011;11628;51.072;3.712;2023-02-15T04:13:23;96.50;;;68.45;;
22924;SDS011;11628;51.072;3.712;2023-02-15T04:15:54;99.65;;;70.00;;
22924;SDS011;11628;51.072;3.712;2023-02-15T04:18:31;102.22;;;70.38;;
22924;SDS011;11628;51.072;3.712;2023-02-15T04:21:20;103.15;;;71.75;;
22924;SDS011;11628;51.072;3.712;2023-02-15T04:24:05;105.57;;;71.28;;
22924;SDS011;11628;51.072;3.712;2023-02-15T04:26:50;102.10;;;70.57;;
22924;SDS011;11628;51.072;3.712;2023-02-15T04:29:20;104.57;;;71.35;;
22924;SDS011;11628;51.072;3.712;2023-02-15T04:31:47;100.82;;;68.25;;
22924;SDS011;11628;51.072;3.712;2023-02-15T04:34:13;98.40;;;68.68;;
22924;SDS011;11628;51.072;3.712;2023-02-15T04:36:39;102.50;;;70.35;;
22924;SDS011;11628;51.072;3.712;2023-02-15T04:39:06;101.45;;;70.60;;
22924;SDS011;11628;51.072;3.712;2023-02-15T04:41:33;99.60;;;68.45;;
22924;SDS011;11628;51.072;3.712;2023-02-15T04:43:59;105.60;;;72.00;;
22924;SDS011;11628;51.072;3.712;2023-02-15T04:46:27;99.97;;;70.93;;
22924;SDS011;11628;51.072;3.712;2023-02-15T04:48:53;98.40;;;68.90;;
22924;SDS011;11628;51.072;3.712;2023-02-15T04:51:19;89.20;;;66.38;;
22924;SDS011;11628;51.072;3.712;2023-02-15T04:53:45;100.57;;;69.32;;
22924;SDS011;11628;51.072;3.712;2023-02-15T04:56:11;100.80;;;69.03;;
22924;SDS011;11628;51.072;3.712;2023-02-15T04:58:37;96.28;;;65.88;;
22924;SDS011;11628;51.072;3.712;2023-02-15T05:01:06;102.20;;;70.07;;
22924;SDS011;11628;51.072;3.712;2023-02-15T05:03:33;101.47;;;67.85;;
22924;SDS011;11628;51.072;3.712;2023-02-15T05:05:58;94.75;;;68.45;;
22924;SDS011;11628;51.072;3.712;2023-02-15T05:08:24;98.82;;;66.78;;
22924;SDS011;11628;51.072;3.712;2023-02-15T05:10:51;93.25;;;65.13;;
22924;SDS011;11628;51.072;3.712;2023-02-15T05:13:16;93.28;;;66.03;;
22924;SDS011;11628;51.072;3.712;2023-02-15T05:15:46;100.35;;;65.63;;
22924;SDS011;11628;51.072;3.712;2023-02-15T05:18:13;94.85;;;65.75;;
22924;SDS011;11628;51.072;3.712;2023-02-15T05:20:41;96.15;;;66.57;;
22924;SDS011;11628;51.072;3.712;2023-02-15T05:23:11;95.13;;;66.45;;
22924;SDS011;11628;51.072;3.712;2023-02-15T05:25:37;94.88;;;64.68;;
22924;SDS011;11628;51.072;3.712;2023-02-15T05:28:22;94.65;;;65.40;;
22924;SDS011;11628;51.072;3.712;2023-02-15T05:31:13;92.53;;;64.93;;
22924;SDS011;11628;51.072;3.712;2023-02-15T05:33:40;98.55;;;66.68;;
22924;SDS011;11628;51.072;3.712;2023-02-15T05:36:06;98.18;;;66.70;;
22924;SDS011;11628;51.072;3.712;2023-02-15T05:38:34;93.80;;;63.70;;
22924;SDS011;11628;51.072;3.712;2023-02-15T05:41:02;92.80;;;65.43;;
22924;SDS011;11628;51.072;3.712;2023-02-15T05:43:29;93.22;;;63.28;;
22924;SDS011;11628;51.072;3.712;2023-02-15T05:45:56;95.45;;;66.00;;
22924;SDS011;11628;51.072;3.712;2023-02-15T05:48:22;92.95;;;65.10;;
22924;SDS011;11628;51.072;3.712;2023-02-15T05:51:08;96.43;;;65.75;;
22924;SDS011;11628;51.072;3.712;2023-02-15T05:53:36;184.20;;;107.35;;
22924;SDS011;11628;51.072;3.712;2023-02-15T05:56:03;112.90;;;74.22;;
22924;SDS011;11628;51.072;3.712;2023-02-15T05:58:32;101.82;;;69.00;;
22924;SDS011;11628;51.072;3.712;2023-02-15T06:01:35;98.00;;;66.43;;
22924;SDS011;11628;51.072;3.712;2023-02-15T06:03:54;105.88;;;68.03;;
22924;SDS011;11628;51.072;3.712;2023-02-15T06:06:20;108.47;;;70.55;;
22924;SDS011;11628;51.072;3.712;2023-02-15T06:08:46;102.07;;;67.68;;
22924;SDS011;11628;51.072;3.712;2023-02-15T06:11:12;104.72;;;68.75;;
22924;SDS011;11628;51.072;3.712;2023-02-15T06:13:38;100.55;;;65.20;;
22924;SDS011;11628;51.072;3.712;2023-02-15T06:16:05;95.78;;;65.47;;
22924;SDS011;11628;51.072;3.712;2023-02-15T06:18:31;107.28;;;75.38;;
22924;SDS011;11628;51.072;3.712;2023-02-15T06:20:57;101.50;;;69.15;;
22924;SDS011;11628;51.072;3.712;2023-02-15T06:23:23;100.07;;;67.72;;
22924;SDS011;11628;51.072;3.712;2023-02-15T06:25:48;97.32;;;66.68;;
22924;SDS011;11628;51.072;3.712;2023-02-15T06:28:15;137.20;;;90.68;;
22924;SDS011;11628;51.072;3.712;2023-02-15T06:30:40;105.38;;;69.18;;
22924;SDS011;11628;51.072;3.712;2023-02-15T06:33:06;117.45;;;81.30;;
22924;SDS011;11628;51.072;3.712;2023-02-15T06:35:32;103.72;;;69.20;;
22924;SDS011;11628;51.072;3.712;2023-02-15T06:37:58;100.43;;;66.93;;
22924;SDS011;11628;51.072;3.712;2023-02-15T06:40:24;109.47;;;69.63;;
22924;SDS011;11628;51.072;3.712;2023-02-15T06:42:50;99.70;;;65.22;;
22924;SDS011;11628;51.072;3.712;2023-02-15T06:45:16;103.65;;;66.55;;
22924;SDS011;11628;51.072;3.712;2023-02-15T06:47:41;101.90;;;65.85;;
22924;SDS011;11628;51.072;3.712;2023-02-15T06:50:08;99.57;;;63.85;;
22924;SDS011;11628;51.072;3.712;2023-02-15T06:52:37;100.00;;;64.82;;
22924;SDS011;11628;51.072;3.712;2023-02-15T06:55:03;101.40;;;63.17;;
22924;SDS011;11628;51.072;3.712;2023-02-15T06:57:29;101.95;;;64.43;;
22924;SDS011;11628;51.072;3.712;2023-02-15T06:59:55;102.30;;;64.90;;
22924;SDS011;11628;51.072;3.712;2023-02-15T07:02:23;102.25;;;67.30;;
22924;SDS011;11628;51.072;3.712;2023-02-15T07:04:48;113.05;;;72.13;;
22924;SDS011;11628;51.072;3.712;2023-02-15T07:07:14;100.22;;;65.35;;
22924;SDS011;11628;51.072;3.712;2023-02-15T07:09:40;100.30;;;64.30;;
22924;SDS011;11628;51.072;3.712;2023-02-15T07:12:06;101.03;;;64.50;;
22924;SDS011;11628;51.072;3.712;2023-02-15T07:14:51;113.80;;;72.45;;
22924;SDS011;11628;51.072;3.712;2023-02-15T07:17:17;106.10;;;70.15;;
22924;SDS011;11628;51.072;3.712;2023-02-15T07:19:43;108.68;;;70.43;;
22924;SDS011;11628;51.072;3.712;2023-02-15T07:22:09;112.80;;;72.22;;
22924;SDS011;11628;51.072;3.712;2023-02-15T07:24:36;105.68;;;68.80;;
22924;SDS011;11628;51.072;3.712;2023-02-15T07:27:02;112.43;;;72.10;;
22924;SDS011;11628;51.072;3.712;2023-02-15T07:29:28;104.15;;;68.75;;
22924;SDS011;11628;51.072;3.712;2023-02-15T07:31:55;106.70;;;70.32;;
22924;SDS011;11628;51.072;3.712;2023-02-15T07:34:22;104.32;;;67.68;;
22924;SDS011;11628;51.072;3.712;2023-02-15T07:36:50;100.68;;;64.35;;
22924;SDS011;11628;51.072;3.712;2023-02-15T07:39:16;101.07;;;67.55;;
22924;SDS011;11628;51.072;3.712;2023-02-15T07:41:42;103.57;;;66.50;;
22924;SDS011;11628;51.072;3.712;2023-02-15T07:44:10;103.07;;;67.18;;
22924;SDS011;11628;51.072;3.712;2023-02-15T07:46:40;92.10;;;63.13;;
22924;SDS011;11628;51.072;3.712;2023-02-15T07:49:06;89.43;;;59.40;;
22924;SDS011;11628;51.072;3.712;2023-02-15T07:51:32;91.72;;;60.65;;
22924;SDS011;11628;51.072;3.712;2023-02-15T07:53:58;85.13;;;57.08;;
22924;SDS011;11628;51.072;3.712;2023-02-15T07:56:24;79.68;;;56.28;;
22924;SDS011;11628;51.072;3.712;2023-02-15T07:58:50;80.50;;;54.40;;
22924;SDS011;11628;51.072;3.712;2023-02-15T08:01:22;75.38;;;53.05;;
22924;SDS011;11628;51.072;3.712;2023-02-15T08:03:50;72.03;;;50.03;;
22924;SDS011;11628;51.072;3.712;2023-02-15T08:06:16;71.65;;;48.80;;
22924;SDS011;11628;51.072;3.712;2023-02-15T08:08:42;67.22;;;45.80;;
22924;SDS011;11628;51.072;3.712;2023-02-15T08:14:10;59.03;;;41.20;;
22924;SDS011;11628;51.072;3.712;2023-02-15T08:16:47;57.38;;;39.63;;
22924;SDS011;11628;51.072;3.712;2023-02-15T08:19:22;53.38;;;38.80;;
22924;SDS011;11628;51.072;3.712;2023-02-15T08:24:18;50.85;;;36.92;;
22924;SDS011;11628;51.072;3.712;2023-02-15T08:26:46;53.17;;;37.15;;
22924;SDS011;11628;51.072;3.712;2023-02-15T08:29:16;55.17;;;37.42;;
22924;SDS011;11628;51.072;3.712;2023-02-15T08:31:44;47.45;;;35.58;;
22924;SDS011;11628;51.072;3.712;2023-02-15T08:34:11;54.58;;;37.70;;
22924;SDS011;11628;51.072;3.712;2023-02-15T08:36:40;51.45;;;36.65;;
22924;SDS011;11628;51.072;3.712;2023-02-15T08:39:07;52.67;;;36.33;;
22924;SDS011;11628;51.072;3.712;2023-02-15T08:41:34;55.00;;;37.20;;
22924;SDS011;11628;51.072;3.712;2023-02-15T08:44:02;55.67;;;37.53;;
22924;SDS011;11628;51.072;3.712;2023-02-15T08:46:31;50.25;;;35.28;;
22924;SDS011;11628;51.072;3.712;2023-02-15T08:48:58;50.30;;;34.55;;
22924;SDS011;11628;51.072;3.712;2023-02-15T08:51:26;49.33;;;34.67;;
22924;SDS011;11628;51.072;3.712;2023-02-15T08:53:55;49.53;;;35.30;;
22924;SDS011;11628;51.072;3.712;2023-02-15T08:56:23;49.10;;;34.03;;
22924;SDS011;11628;51.072;3.712;2023-02-15T08:58:50;47.72;;;35.30;;
22924;SDS011;11628;51.072;3.712;2023-02-15T09:01:18;49.90;;;33.97;;
22924;SDS011;11628;51.072;3.712;2023-02-15T09:03:46;47.20;;;33.83;;
22924;SDS011;11628;51.072;3.712;2023-02-15T09:06:15;52.20;;;35.28;;
22924;SDS011;11628;51.072;3.712;2023-02-15T09:08:41;53.70;;;34.83;;
22924;SDS011;11628;51.072;3.712;2023-02-15T09:11:09;48.65;;;34.60;;
22924;SDS011;11628;51.072;3.712;2023-02-15T09:13:37;49.78;;;33.15;;
22924;SDS011;11628;51.072;3.712;2023-02-15T09:16:06;50.58;;;33.53;;
22924;SDS011;11628;51.072;3.712;2023-02-15T09:18:35;50.22;;;34.55;;
22924;SDS011;11628;51.072;3.712;2023-02-15T09:21:07;51.58;;;35.40;;
22924;SDS011;11628;51.072;3.712;2023-02-15T09:23:38;48.40;;;32.60;;
22924;SDS011;11628;51.072;3.712;2023-02-15T09:26:10;51.40;;;34.92;;
22924;SDS011;11628;51.072;3.712;2023-02-15T09:28:38;49.80;;;33.47;;
22924;SDS011;11628;51.072;3.712;2023-02-15T09:31:06;47.85;;;35.17;;
22924;SDS011;11628;51.072;3.712;2023-02-15T09:33:34;43.90;;;32.38;;
22924;SDS011;11628;51.072;3.712;2023-02-15T09:36:01;51.63;;;33.03;;
22924;SDS011;11628;51.072;3.712;2023-02-15T09:38:28;46.60;;;31.35;;
22924;SDS011;11628;51.072;3.712;2023-02-15T09:40:58;45.17;;;33.10;;
22924;SDS011;11628;51.072;3.712;2023-02-15T09:43:42;42.85;;;32.45;;
22924;SDS011;11628;51.072;3.712;2023-02-15T09:49:01;45.50;;;32.28;;
22924;SDS011;11628;51.072;3.712;2023-02-15T09:51:47;46.67;;;32.05;;
22924;SDS011;11628;51.072;3.712;2023-02-15T09:54:54;47.03;;;33.42;;
22924;SDS011;11628;51.072;3.712;2023-02-15T10:11:46;44.25;;;32.22;;
22924;SDS011;11628;51.072;3.712;2023-02-15T10:17:14;43.33;;;32.35;;
22924;SDS011;11628;51.072;3.712;2023-02-15T10:28:05;46.40;;;33.15;;
22924;SDS011;11628;51.072;3.712;2023-02-15T10:30:47;51.13;;;32.65;;
22924;SDS011;11628;51.072;3.712;2023-02-15T10:36:02;44.17;;;31.10;;
22924;SDS011;11628;51.072;3.712;2023-02-15T10:42:09;44.17;;;30.77;;
22924;SDS011;11628;51.072;3.712;2023-02-15T11:01:19;40.28;;;30.38;;
22924;SDS011;11628;51.072;3.712;2023-02-15T11:06:28;41.65;;;31.20;;
22924;SDS011;11628;51.072;3.712;2023-02-15T11:08:57;41.58;;;31.35;;
22924;SDS011;11628;51.072;3.712;2023-02-15T11:11:32;39.85;;;30.27;;
22924;SDS011;11628;51.072;3.712;2023-02-15T11:14:10;41.10;;;32.45;;
22924;SDS011;11628;51.072;3.712;2023-02-15T11:16:50;43.28;;;31.17;;
22924;SDS011;11628;51.072;3.712;2023-02-15T11:19:23;40.25;;;31.27;;
22924;SDS011;11628;51.072;3.712;2023-02-15T11:21:57;42.83;;;32.72;;
22924;SDS011;11628;51.072;3.712;2023-02-15T11:24:26;45.13;;;33.05;;
22924;SDS011;11628;51.072;3.712;2023-02-15T11:26:57;42.88;;;31.67;;
22924;SDS011;11628;51.072;3.712;2023-02-15T11:32:19;44.72;;;32.42;;
22924;SDS011;11628;51.072;3.712;2023-02-15T11:34:49;44.83;;;33.60;;
22924;SDS011;11628;51.072;3.712;2023-02-15T11:37:18;43.10;;;32.03;;
22924;SDS011;11628;51.072;3.712;2023-02-15T11:39:50;44.03;;;31.50;;
22924;SDS011;11628;51.072;3.712;2023-02-15T11:42:21;42.33;;;32.88;;
22924;SDS011;11628;51.072;3.712;2023-02-15T11:44:59;43.28;;;32.22;;
22924;SDS011;11628;51.072;3.712;2023-02-15T11:47:32;42.67;;;32.28;;
22924;SDS011;11628;51.072;3.712;2023-02-15T11:49:59;46.30;;;33.70;;
22924;SDS011;11628;51.072;3.712;2023-02-15T11:52:25;46.38;;;32.40;;
22924;SDS011;11628;51.072;3.712;2023-02-15T11:54:51;42.55;;;32.55;;
22924;SDS011;11628;51.072;3.712;2023-02-15T12:02:35;42.70;;;31.65;;
22924;SDS011;11628;51.072;3.712;2023-02-15T12:05:09;39.67;;;31.13;;
22924;SDS011;11628;51.072;3.712;2023-02-15T12:08:00;42.53;;;32.22;;
22924;SDS011;11628;51.072;3.712;2023-02-15T12:10:35;41.17;;;31.33;;
22924;SDS011;11628;51.072;3.712;2023-02-15T12:13:15;40.53;;;31.50;;
22924;SDS011;11628;51.072;3.712;2023-02-15T12:15:52;42.53;;;30.60;;
22924;SDS011;11628;51.072;3.712;2023-02-15T12:21:07;48.55;;;32.20;;
22924;SDS011;11628;51.072;3.712;2023-02-15T12:23:53;43.80;;;31.67;;
22924;SDS011;11628;51.072;3.712;2023-02-15T12:26:39;42.60;;;33.50;;
22924;SDS011;11628;51.072;3.712;2023-02-15T12:29:12;41.05;;;31.58;;
22924;SDS011;11628;51.072;3.712;2023-02-15T12:31:45;45.28;;;32.22;;
22924;SDS011;11628;51.072;3.712;2023-02-15T12:36:49;44.13;;;33.10;;
22924;SDS011;11628;51.072;3.712;2023-02-15T12:39:29;46.90;;;34.33;;
22924;SDS011;11628;51.072;3.712;2023-02-15T12:44:33;45.50;;;30.38;;
22924;SDS011;11628;51.072;3.712;2023-02-15T12:49:41;46.53;;;32.63;;
22924;SDS011;11628;51.072;3.712;2023-02-15T12:54:46;42.33;;;31.05;;
22924;SDS011;11628;51.072;3.712;2023-02-15T12:59:42;46.20;;;30.80;;
22924;SDS011;11628;51.072;3.712;2023-02-15T13:02:16;44.78;;;31.38;;
22924;SDS011;11628;51.072;3.712;2023-02-15T13:04:48;42.70;;;32.42;;
22924;SDS011;11628;51.072;3.712;2023-02-15T13:07:15;47.17;;;32.97;;
22924;SDS011;11628;51.072;3.712;2023-02-15T13:09:41;40.75;;;31.80;;
22924;SDS011;11628;51.072;3.712;2023-02-15T13:12:49;39.85;;;32.17;;
22924;SDS011;11628;51.072;3.712;2023-02-15T13:14:57;49.05;;;35.75;;
22924;SDS011;11628;51.072;3.712;2023-02-15T13:17:25;40.58;;;30.00;;
22924;SDS011;11628;51.072;3.712;2023-02-15T13:20:18;41.15;;;30.55;;
22924;SDS011;11628;51.072;3.712;2023-02-15T13:22:49;45.90;;;31.52;;
22924;SDS011;11628;51.072;3.712;2023-02-15T13:25:21;42.80;;;31.73;;
22924;SDS011;11628;51.072;3.712;2023-02-15T13:28:00;46.15;;;32.15;;
22924;SDS011;11628;51.072;3.712;2023-02-15T13:30:36;39.25;;;30.48;;
22924;SDS011;11628;51.072;3.712;2023-02-15T13:35:59;36.90;;;30.00;;
22924;SDS011;11628;51.072;3.712;2023-02-15T13:38:46;42.80;;;30.58;;
22924;SDS011;11628;51.072;3.712;2023-02-15T13:41:23;42.58;;;29.75;;
22924;SDS011;11628;51.072;3.712;2023-02-15T13:44:12;39.17;;;28.58;;
22924;SDS011;11628;51.072;3.712;2023-02-15T13:47:06;36.95;;;29.63;;
22924;SDS011;11628;51.072;3.712;2023-02-15T13:52:24;36.75;;;30.17;;
22924;SDS011;11628;51.072;3.712;2023-02-15T14:00:16;35.88;;;29.05;;
22924;SDS011;11628;51.072;3.712;2023-02-15T14:06:12;39.00;;;28.95;;
22924;SDS011;11628;51.072;3.712;2023-02-15T14:09:02;49.53;;;30.63;;
22924;SDS011;11628;51.072;3.712;2023-02-15T14:23:11;40.80;;;31.95;;
22924;SDS011;11628;51.072;3.712;2023-02-15T14:28:27;43.63;;;32.17;;
22924;SDS011;11628;51.072;3.712;2023-02-15T14:31:14;45.05;;;33.38;;
22924;SDS011;11628;51.072;3.712;2023-02-15T14:33:52;41.97;;;33.00;;
22924;SDS011;11628;51.072;3.712;2023-02-15T14:36:20;45.33;;;33.73;;
22924;SDS011;11628;51.072;3.712;2023-02-15T14:44:57;44.53;;;32.42;;
22924;SDS011;11628;51.072;3.712;2023-02-15T14:47:35;42.28;;;31.13;;
22924;SDS011;11628;51.072;3.712;2023-02-15T14:55:45;43.38;;;29.52;;
22924;SDS011;11628;51.072;3.712;2023-02-15T14:58:11;42.08;;;31.48;;
22924;SDS011;11628;51.072;3.712;2023-02-15T15:00:39;42.72;;;31.95;;
22924;SDS011;11628;51.072;3.712;2023-02-15T15:03:11;47.60;;;32.97;;
22924;SDS011;11628;51.072;3.712;2023-02-15T15:05:47;48.75;;;33.50;;
22924;SDS011;11628;51.072;3.712;2023-02-15T15:08:26;54.15;;;33.33;;
22924;SDS011;11628;51.072;3.712;2023-02-15T15:10:57;49.22;;;34.00;;
22924;SDS011;11628;51.072;3.712;2023-02-15T15:13:56;48.35;;;33.72;;
22924;SDS011;11628;51.072;3.712;2023-02-15T15:16:24;44.63;;;32.70;;
22924;SDS011;11628;51.072;3.712;2023-02-15T15:18:55;50.22;;;33.45;;
22924;SDS011;11628;51.072;3.712;2023-02-15T15:43:46;44.20;;;32.65;;
22924;SDS011;11628;51.072;3.712;2023-02-15T15:49:23;42.55;;;31.95;;
22924;SDS011;11628;51.072;3.712;2023-02-15T15:51:53;49.75;;;33.28;;
22924;SDS011;11628;51.072;3.712;2023-02-15T15:54:20;49.08;;;33.28;;
22924;SDS011;11628;51.072;3.712;2023-02-15T15:56:49;43.92;;;31.15;;
22924;SDS011;11628;51.072;3.712;2023-02-15T15:59:20;49.08;;;31.85;;
22924;SDS011;11628;51.072;3.712;2023-02-15T16:01:50;48.42;;;33.47;;
22924;SDS011;11628;51.072;3.712;2023-02-15T16:04:26;53.58;;;34.00;;
22924;SDS011;11628;51.072;3.712;2023-02-15T16:12:19;58.25;;;34.08;;
22924;SDS011;11628;51.072;3.712;2023-02-15T16:14:45;48.65;;;32.10;;
22924;SDS011;11628;51.072;3.712;2023-02-15T16:17:26;45.85;;;32.30;;
22924;SDS011;11628;51.072;3.712;2023-02-15T16:20:06;50.60;;;31.95;;
22924;SDS011;11628;51.072;3.712;2023-02-15T16:22:37;50.03;;;33.70;;
22924;SDS011;11628;51.072;3.712;2023-02-15T16:25:31;50.15;;;32.42;;
22924;SDS011;11628;51.072;3.712;2023-02-15T16:28:06;53.85;;;34.25;;
22924;SDS011;11628;51.072;3.712;2023-02-15T16:30:36;50.08;;;32.58;;
22924;SDS011;11628;51.072;3.712;2023-02-15T16:33:05;46.47;;;32.35;;
22924;SDS011;11628;51.072;3.712;2023-02-15T16:35:39;53.80;;;33.65;;
22924;SDS011;11628;51.072;3.712;2023-02-15T16:41:09;50.38;;;33.78;;
22924;SDS011;11628;51.072;3.712;2023-02-15T16:43:48;51.30;;;33.95;;
22924;SDS011;11628;51.072;3.712;2023-02-15T16:46:16;52.80;;;33.97;;
22924;SDS011;11628;51.072;3.712;2023-02-15T16:51:36;51.85;;;34.08;;
22924;SDS011;11628;51.072;3.712;2023-02-15T16:54:06;46.58;;;33.15;;
22924;SDS011;11628;51.072;3.712;2023-02-15T16:56:40;51.53;;;33.00;;
22924;SDS011;11628;51.072;3.712;2023-02-15T16:59:16;51.92;;;33.55;;
22924;SDS011;11628;51.072;3.712;2023-02-15T17:01:54;51.60;;;34.25;;
22924;SDS011;11628;51.072;3.712;2023-02-15T17:06:59;49.20;;;33.92;;
22924;SDS011;11628;51.072;3.712;2023-02-15T17:09:29;48.05;;;32.10;;
22924;SDS011;11628;51.072;3.712;2023-02-15T17:11:55;50.03;;;34.40;;
22924;SDS011;11628;51.072;3.712;2023-02-15T17:14:31;50.67;;;34.78;;
22924;SDS011;11628;51.072;3.712;2023-02-15T17:17:06;49.97;;;34.53;;
22924;SDS011;11628;51.072;3.712;2023-02-15T17:22:16;51.92;;;33.45;;
22924;SDS011;11628;51.072;3.712;2023-02-15T17:24:47;49.17;;;33.50;;
22924;SDS011;11628;51.072;3.712;2023-02-15T17:27:20;52.25;;;35.28;;
22924;SDS011;11628;51.072;3.712;2023-02-15T17:37:24;48.95;;;33.42;;
22924;SDS011;11628;51.072;3.712;2023-02-15T17:39:56;52.15;;;35.83;;
22924;SDS011;11628;51.072;3.712;2023-02-15T17:42:23;48.53;;;33.05;;
22924;SDS011;11628;51.072;3.712;2023-02-15T17:44:50;47.33;;;32.67;;
22924;SDS011;11628;51.072;3.712;2023-02-15T17:47:22;51.00;;;34.08;;
22924;SDS011;11628;51.072;3.712;2023-02-15T17:49:51;51.45;;;33.85;;
22924;SDS011;11628;51.072;3.712;2023-02-15T17:52:18;51.17;;;34.90;;
22924;SDS011;11628;51.072;3.712;2023-02-15T17:54:47;51.47;;;34.63;;
22924;SDS011;11628;51.072;3.712;2023-02-15T17:57:32;54.03;;;35.83;;
22924;SDS011;11628;51.072;3.712;2023-02-15T17:59:58;50.75;;;36.25;;
22924;SDS011;11628;51.072;3.712;2023-02-15T18:02:45;50.75;;;35.83;;
22924;SDS011;11628;51.072;3.712;2023-02-15T18:05:29;51.60;;;36.40;;
22924;SDS011;11628;51.072;3.712;2023-02-15T18:08:15;51.15;;;36.38;;